createdAt,value
2022-09-11T00:02:03.806Z,100978.06
2022-09-11T00:04:31.171Z,100956.19
2022-09-11T00:06:57.525Z,100980.38
2022-09-11T00:09:23.846Z,100958.06
2022-09-11T00:11:50.259Z,100884.53
2022-09-11T00:14:16.686Z,100998.53
2022-09-11T00:16:45.575Z,100952.94
2022-09-11T00:19:15.779Z,100962.66
2022-09-11T00:21:42.155Z,100983.84
2022-09-11T00:24:11.352Z,100995.25
2022-09-11T00:26:39.025Z,100912.03
2022-09-11T00:29:05.559Z,100984.22
2022-09-11T00:31:32.496Z,100978.44
2022-09-11T00:33:59.051Z,100890.22
2022-09-11T00:36:31.407Z,100993.56
2022-09-11T00:38:58.720Z,101018.38
2022-09-11T00:41:32.213Z,101008.03
2022-09-11T00:44:05.518Z,101015.03
2022-09-11T00:46:40.051Z,101011.75
2022-09-11T00:49:16.694Z,101010.81
2022-09-11T00:51:47.652Z,100994.53
2022-09-11T00:54:20.454Z,100992.41
2022-09-11T00:56:48.514Z,101002.50
2022-09-11T00:59:16.752Z,100868.53
2022-09-11T01:01:43.468Z,100998.50
2022-09-11T01:04:10.935Z,100929.94
2022-09-11T01:06:37.553Z,101027.47
2022-09-11T01:09:04.199Z,101024.97
2022-09-11T01:11:44.229Z,101024.16
2022-09-11T01:14:22.126Z,101011.63
2022-09-11T01:17:08.182Z,101016.25
2022-09-11T01:20:19.152Z,101035.00
2022-09-11T01:22:57.779Z,101033.41
2022-09-11T01:25:42.843Z,101044.16
2022-09-11T01:28:33.595Z,101021.91
2022-09-11T01:31:07.012Z,101013.44
2022-09-11T01:34:02.560Z,101040.84
2022-09-11T01:36:35.326Z,101014.91
2022-09-11T01:39:04.092Z,100961.72
2022-09-11T01:41:45.984Z,101057.22
2022-09-11T01:44:17.283Z,101039.13
2022-09-11T01:46:50.069Z,101023.38
2022-09-11T01:49:20.704Z,101037.88
2022-09-11T01:51:52.289Z,101043.03
2022-09-11T01:54:22.967Z,101058.69
2022-09-11T01:56:56.902Z,100931.00
2022-09-11T01:59:30.310Z,101064.53
2022-09-11T02:02:06.781Z,101052.69
2022-09-11T02:04:46.365Z,100966.31
2022-09-11T02:07:25.295Z,101062.13
2022-09-11T02:09:59.259Z,100976.28
2022-09-11T02:12:36.658Z,101066.50
2022-09-11T02:15:03.271Z,101021.66
2022-09-11T02:17:52.222Z,101062.09
2022-09-11T02:20:20.871Z,101034.09
2022-09-11T02:22:48.175Z,101063.81
2022-09-11T02:25:15.744Z,101035.44
2022-09-11T02:27:42.590Z,100954.59
2022-09-11T02:30:09.879Z,101061.09
2022-09-11T02:32:39.275Z,101070.53
2022-09-11T02:35:06.983Z,101062.94
2022-09-11T02:37:49.179Z,101081.09
2022-09-11T02:40:53.074Z,101082.03
2022-09-11T02:43:33.767Z,101082.03
2022-09-11T02:46:13.522Z,101040.97
2022-09-11T02:49:01.919Z,101066.75
2022-09-11T02:51:38.274Z,101080.41
2022-09-11T02:54:24.814Z,101040.16
2022-09-11T02:57:20.557Z,101054.75
2022-09-11T02:59:55.598Z,101082.88
2022-09-11T03:02:24.074Z,101090.69
2022-09-11T03:04:50.621Z,101065.94
2022-09-11T03:07:17.265Z,101008.38
2022-09-11T03:09:43.572Z,101078.66
2022-09-11T03:12:10.446Z,101014.31
2022-09-11T03:14:38.083Z,101093.97
2022-09-11T03:17:05.331Z,101062.50
2022-09-11T03:19:31.902Z,101083.16
2022-09-11T03:21:58.320Z,101094.00
2022-09-11T03:24:26.310Z,101092.41
2022-09-11T03:26:52.741Z,101012.59
2022-09-11T03:29:19.122Z,101096.78
2022-09-11T03:31:46.626Z,101101.03
2022-09-11T03:34:13.478Z,100931.72
2022-09-11T03:36:40.259Z,101110.94
2022-09-11T03:39:06.767Z,101050.44
2022-09-11T03:41:33.104Z,101067.78
2022-09-11T03:43:59.639Z,101026.78
2022-09-11T03:46:26.081Z,101100.88
2022-09-11T03:48:53.183Z,101068.72
2022-09-11T03:51:21.047Z,101090.28
2022-09-11T03:53:48.110Z,101082.47
2022-09-11T03:56:14.935Z,101060.91
2022-09-11T03:58:41.285Z,101089.38
2022-09-11T04:01:10.972Z,101005.03
2022-09-11T04:03:37.364Z,101098.63
2022-09-11T04:06:03.927Z,101110.69
2022-09-11T04:08:33.717Z,101079.59
2022-09-11T04:11:02.795Z,101042.50
2022-09-11T04:13:31.300Z,101002.28
2022-09-11T04:16:03.640Z,101097.53
2022-09-11T04:18:32.342Z,101101.69
2022-09-11T04:20:58.831Z,101002.88
2022-09-11T04:23:25.331Z,101053.53
2022-09-11T04:25:53.251Z,100974.63
2022-09-11T04:28:19.710Z,100998.03
2022-09-11T04:30:46.033Z,101062.63
2022-09-11T04:33:12.354Z,101098.03
2022-09-11T04:35:40.295Z,101101.34
2022-09-11T04:38:07.637Z,101100.00
2022-09-11T04:40:35.044Z,101105.91
2022-09-11T04:43:02.296Z,101093.19
2022-09-11T04:45:33.255Z,101068.03
2022-09-11T04:48:00.795Z,101081.44
2022-09-11T04:50:28.894Z,101110.22
2022-09-11T04:52:55.276Z,101115.50
2022-09-11T04:55:21.914Z,101083.34
2022-09-11T04:57:48.227Z,101125.72
2022-09-11T05:00:14.989Z,101106.78
2022-09-11T05:02:41.336Z,101097.59
2022-09-11T05:05:09.205Z,101093.28
2022-09-11T05:07:36.244Z,101093.38
2022-09-11T05:10:03.066Z,101121.91
2022-09-11T05:12:31.806Z,101132.97
2022-09-11T05:14:59.033Z,101129.53
2022-09-11T05:17:25.445Z,101008.19
2022-09-11T05:19:51.790Z,101126.31
2022-09-11T05:22:18.170Z,101139.25
2022-09-11T05:24:44.529Z,101145.16
2022-09-11T05:27:11.562Z,100976.56
2022-09-11T05:29:39.118Z,101140.22
2022-09-11T05:32:05.895Z,100978.84
2022-09-11T05:34:32.256Z,101164.22
2022-09-11T05:36:58.657Z,101153.81
2022-09-11T05:39:25.001Z,101039.44
2022-09-11T05:41:52.212Z,101161.50
2022-09-11T05:44:18.842Z,101077.44
2022-09-11T05:46:46.077Z,101157.13
2022-09-11T05:49:12.892Z,101175.28
2022-09-11T05:51:41.559Z,101157.94
2022-09-11T05:54:08.538Z,101026.41
2022-09-11T05:56:34.938Z,101176.44
2022-09-11T05:59:02.419Z,101188.56
2022-09-11T06:01:29.232Z,101152.50
2022-09-11T06:03:55.591Z,101200.38
2022-09-11T06:06:23.015Z,101193.53
2022-09-11T06:08:51.817Z,101172.13
2022-09-11T06:11:19.603Z,101202.31
2022-09-11T06:13:47.233Z,101155.00
2022-09-11T06:16:24.647Z,101188.56
2022-09-11T06:18:52.769Z,101211.13
2022-09-11T06:21:23.835Z,101219.63
2022-09-11T06:23:52.157Z,101132.13
2022-09-11T06:26:21.663Z,101179.56
2022-09-11T06:28:48.228Z,101114.09
2022-09-11T06:31:17.215Z,101199.22
2022-09-11T06:33:44.258Z,101224.38
2022-09-11T06:36:23.858Z,101220.19
2022-09-11T06:38:54.880Z,101234.19
2022-09-11T06:41:21.614Z,101194.56
2022-09-11T06:43:49.130Z,101210.72
2022-09-11T06:46:20.858Z,101228.75
2022-09-11T06:48:49.187Z,101203.00
2022-09-11T06:51:18.713Z,101224.63
2022-09-11T06:53:47.288Z,101231.41
2022-09-11T06:56:18.537Z,101129.94
2022-09-11T06:58:45.965Z,101209.09
2022-09-11T07:01:14.783Z,101212.03
2022-09-11T07:03:48.713Z,101212.16
2022-09-11T07:06:17.473Z,101228.19
2022-09-11T07:08:43.992Z,101242.22
2022-09-11T07:11:12.651Z,101242.31
2022-09-11T07:13:39.806Z,101225.78
2022-09-11T07:16:08.446Z,101236.81
2022-09-11T07:18:36.205Z,101245.19
2022-09-11T07:21:11.194Z,101240.06
2022-09-11T07:23:37.618Z,101226.00
2022-09-11T07:26:06.160Z,101117.41
2022-09-11T07:28:32.816Z,101201.97
2022-09-11T07:31:14.437Z,101239.03
2022-09-11T07:33:48.808Z,101152.25
2022-09-11T07:36:25.144Z,101212.09
2022-09-11T07:38:52.039Z,101248.16
2022-09-11T07:41:21.247Z,101257.88
2022-09-11T07:43:52.859Z,101151.66
2022-09-11T07:46:19.282Z,101165.56
2022-09-11T07:48:45.599Z,101212.94
2022-09-11T07:51:14.240Z,101255.16
2022-09-11T07:53:43.994Z,101253.66
2022-09-11T07:56:15.337Z,101262.19
2022-09-11T07:58:43.297Z,101254.44
2022-09-11T08:01:20.402Z,101266.63
2022-09-11T08:03:47.127Z,101267.59
2022-09-11T08:06:21.540Z,101271.44
2022-09-11T08:08:52.416Z,101255.16
2022-09-11T08:11:19.044Z,101259.84
2022-09-11T08:13:58.942Z,101276.22
2022-09-11T08:16:26.592Z,101281.31
2022-09-11T08:18:54.042Z,101244.25
2022-09-11T08:21:21.307Z,101282.00
2022-09-11T08:23:48.925Z,101293.50
2022-09-11T08:26:21.764Z,101146.84
2022-09-11T08:28:50.246Z,101293.75
2022-09-11T08:31:19.842Z,101289.94
2022-09-11T08:33:47.076Z,101283.72
2022-09-11T08:36:16.907Z,101290.28
2022-09-11T08:38:44.449Z,101275.31
2022-09-11T08:41:28.945Z,101303.69
2022-09-11T08:44:27.042Z,101293.53
2022-09-11T08:46:57.426Z,101299.75
2022-09-11T08:49:37.743Z,101299.63
2022-09-11T08:52:05.966Z,101173.00
2022-09-11T08:54:39.054Z,101177.53
2022-09-11T08:57:19.437Z,101290.94
2022-09-11T08:59:58.348Z,101313.78
2022-09-11T09:02:39.004Z,101132.38
2022-09-11T09:05:05.771Z,101317.16
2022-09-11T09:08:20.388Z,101318.75
2022-09-11T09:10:56.794Z,101320.53
2022-09-11T09:13:32.339Z,101319.53
2022-09-11T09:16:06.054Z,101237.59
2022-09-11T09:18:50.804Z,101192.38
2022-09-11T09:21:36.240Z,101317.16
2022-09-11T09:24:04.830Z,101332.53
2022-09-11T09:26:39.840Z,101333.19
2022-09-11T09:29:14.560Z,101318.34
2022-09-11T09:31:44.330Z,101326.69
2022-09-11T09:34:18.519Z,101311.91
2022-09-11T09:37:03.994Z,101230.22
2022-09-11T09:39:31.268Z,101323.25
2022-09-11T09:42:12.988Z,101332.78
2022-09-11T09:45:06.021Z,101334.47
2022-09-11T09:47:33.152Z,101331.97
2022-09-11T09:49:59.849Z,101245.41
2022-09-11T09:52:35.308Z,101295.44
2022-09-11T09:55:05.575Z,101333.13
2022-09-11T09:57:34.343Z,101313.88
2022-09-11T10:00:16.004Z,101244.78
2022-09-11T10:02:54.768Z,101332.34
2022-09-11T10:05:27.546Z,101266.09
2022-09-11T10:07:57.361Z,101323.44
2022-09-11T10:10:39.038Z,101315.09
2022-09-11T10:13:24.807Z,101325.63
2022-09-11T10:15:53.683Z,101260.56
2022-09-11T10:18:27.036Z,101238.94
2022-09-11T10:21:19.002Z,101237.41
2022-09-11T10:24:12.744Z,101256.72
2022-09-11T10:26:45.791Z,101327.47
2022-09-11T10:29:15.909Z,101321.28
2022-09-11T10:31:50.748Z,101311.19
2022-09-11T10:34:20.695Z,101314.03
2022-09-11T10:36:55.669Z,101244.41
2022-09-11T10:39:24.318Z,101332.56
2022-09-11T10:41:54.399Z,101283.91
2022-09-11T10:44:22.504Z,101254.91
2022-09-11T10:47:16.161Z,101321.81
2022-09-11T10:49:42.798Z,101256.84
2022-09-11T10:52:09.203Z,101329.94
2022-09-11T10:54:46.980Z,101237.97
2022-09-11T10:57:52.887Z,101326.34
2022-09-11T11:00:27.087Z,101328.22
2022-09-11T11:03:04.195Z,101313.94
2022-09-11T11:05:46.517Z,101329.22
2022-09-11T11:08:36.591Z,101322.63
2022-09-11T11:11:28.614Z,101292.91
2022-09-11T11:14:24.108Z,101303.03
2022-09-11T11:17:03.843Z,101311.22
2022-09-11T11:20:00.002Z,101318.53
2022-09-11T11:23:05.360Z,101314.00
2022-09-11T11:25:41.062Z,101325.53
2022-09-11T11:28:28.998Z,101326.19
2022-09-11T11:30:55.350Z,101322.94
2022-09-11T11:33:50.331Z,101321.03
2022-09-11T11:36:29.963Z,101307.38
2022-09-11T11:39:07.338Z,101299.63
2022-09-11T11:41:45.187Z,101315.19
2022-09-11T11:44:18.542Z,101256.22
2022-09-11T11:46:52.057Z,101227.63
2022-09-11T11:49:31.406Z,101219.22
2022-09-11T11:52:13.142Z,101320.91
2022-09-11T11:54:49.525Z,101334.34
2022-09-11T11:57:20.782Z,101298.47
2022-09-11T12:00:14.981Z,101306.28
2022-09-11T12:02:45.674Z,101316.94
2022-09-11T12:05:24.212Z,101319.56
2022-09-11T12:07:51.436Z,101310.94
2022-09-11T12:10:39.500Z,101320.91
2022-09-11T12:13:17.690Z,101313.09
2022-09-11T12:16:11.771Z,101318.31
2022-09-11T12:18:38.882Z,101269.16
2022-09-11T12:21:23.416Z,101319.00
2022-09-11T12:23:49.821Z,101322.44
2022-09-11T12:26:24.890Z,101318.16
2022-09-11T12:32:39.819Z,101226.84
2022-09-11T12:35:19.298Z,101283.81
2022-09-11T12:38:03.083Z,101253.09
2022-09-11T12:40:39.081Z,101315.44
2022-09-11T12:43:20.055Z,101284.38
2022-09-11T12:45:49.470Z,101291.44
2022-09-11T12:48:20.297Z,101145.16
2022-09-11T12:50:57.926Z,101183.91
2022-09-11T12:53:37.347Z,101111.94
2022-09-11T12:56:07.725Z,101294.47
2022-09-11T12:58:45.948Z,101289.69
2022-09-11T13:01:14.973Z,101298.44
2022-09-11T13:03:56.942Z,101291.75
2022-09-11T13:06:26.133Z,101218.91
2022-09-11T13:08:59.793Z,101279.47
2022-09-11T13:11:44.032Z,101257.34
2022-09-11T13:14:28.723Z,101275.50
2022-09-11T13:16:55.615Z,101273.97
2022-09-11T13:19:22.048Z,101244.81
2022-09-11T13:21:51.985Z,101274.03
2022-09-11T13:24:25.964Z,101271.69
2022-09-11T13:26:56.388Z,101217.81
2022-09-11T13:29:25.352Z,101205.44
2022-09-11T13:31:51.995Z,101152.47
2022-09-11T13:34:21.868Z,101258.97
2022-09-11T13:36:52.393Z,101148.56
2022-09-11T13:39:24.796Z,101187.50
2022-09-11T13:42:00.000Z,101208.06
2022-09-11T13:44:40.328Z,101247.50
2022-09-11T13:47:18.984Z,101174.97
2022-09-11T13:49:46.611Z,101163.31
2022-09-11T13:52:14.084Z,101227.09
2022-09-11T13:54:45.394Z,101241.84
2022-09-11T13:57:15.173Z,101094.09
2022-09-11T13:59:49.925Z,101237.06
2022-09-11T14:02:25.377Z,101190.22
2022-09-11T14:04:56.976Z,101205.56
2022-09-11T14:07:26.335Z,101124.25
2022-09-11T14:10:14.896Z,101222.34
2022-09-11T14:13:04.231Z,101215.47
2022-09-11T14:22:15.218Z,101120.63
2022-09-11T14:24:53.241Z,101221.41
2022-09-11T14:27:34.768Z,101212.16
2022-09-11T14:30:01.106Z,101132.09
2022-09-11T14:32:38.982Z,101179.63
2022-09-11T14:35:09.128Z,101129.50
2022-09-11T14:37:41.212Z,101209.63
2022-09-11T14:40:15.272Z,101098.44
2022-09-11T14:42:43.059Z,101208.97
2022-09-11T14:45:11.566Z,101184.53
2022-09-11T14:47:38.936Z,101113.78
2022-09-11T14:50:11.861Z,101171.19
2022-09-11T14:52:42.618Z,101172.47
2022-09-11T14:55:19.898Z,101160.31
2022-09-11T14:57:46.815Z,101182.13
2022-09-11T15:00:15.478Z,101181.69
2022-09-11T15:02:42.118Z,101181.44
2022-09-11T15:05:19.396Z,101177.66
2022-09-11T15:07:45.837Z,101166.41
2022-09-11T15:10:37.351Z,101182.22
2022-09-11T15:13:04.286Z,101180.47
2022-09-11T15:15:31.434Z,101162.69
2022-09-11T15:17:57.793Z,101149.69
2022-09-11T15:20:27.520Z,101159.31
2022-09-11T15:22:54.548Z,101157.09
2022-09-11T15:25:20.940Z,101095.84
2022-09-11T15:27:53.767Z,101103.09
2022-09-11T15:30:20.798Z,101003.31
2022-09-11T15:32:48.440Z,101170.84
2022-09-11T15:35:17.818Z,101141.09
2022-09-11T15:37:48.693Z,101007.81
2022-09-11T15:40:16.068Z,101049.53
2022-09-11T15:42:43.792Z,101073.81
2022-09-11T15:45:12.934Z,101146.97
2022-09-11T15:47:40.059Z,101140.63
2022-09-11T15:50:07.683Z,100946.06
2022-09-11T15:52:35.862Z,100981.94
2022-09-11T15:55:03.235Z,101081.72
2022-09-11T15:57:31.106Z,101033.91
2022-09-11T15:59:57.623Z,100972.16
2022-09-11T16:02:24.604Z,101030.94
2022-09-11T16:04:53.775Z,101051.94
2022-09-11T16:07:21.115Z,101061.69
2022-09-11T16:09:47.646Z,101099.09
2022-09-11T16:12:15.642Z,101102.00
2022-09-11T16:14:42.246Z,100972.72
2022-09-11T16:17:08.732Z,101034.09
2022-09-11T16:19:35.870Z,101148.97
2022-09-11T16:22:04.126Z,101041.69
2022-09-11T16:24:37.619Z,101071.00
2022-09-11T16:27:06.870Z,101013.91
2022-09-11T16:29:51.490Z,101118.75
2022-09-11T16:32:28.456Z,101070.56
2022-09-11T16:34:57.188Z,101137.56
2022-09-11T16:37:24.071Z,101145.69
2022-09-11T16:39:50.738Z,101039.38
2022-09-11T16:42:19.655Z,101145.91
2022-09-11T16:44:46.254Z,101137.09
2022-09-11T16:47:12.748Z,100952.00
2022-09-11T16:50:05.391Z,101054.78
2022-09-11T16:52:26.248Z,101066.94
2022-09-11T16:54:52.713Z,101028.25
2022-09-11T16:57:19.150Z,101077.44
2022-09-11T16:59:45.797Z,101120.28
2022-09-11T17:02:12.230Z,101071.84
2022-09-11T17:04:40.985Z,101028.44
2022-09-11T17:07:07.338Z,101110.09
2022-09-11T17:09:33.685Z,101098.75
2022-09-11T17:12:07.386Z,101040.09
2022-09-11T17:14:34.190Z,101112.00
2022-09-11T17:17:02.822Z,101124.53
2022-09-11T17:19:29.317Z,101114.06
2022-09-11T17:21:55.725Z,101097.94
2022-09-11T17:24:24.383Z,101124.50
2022-09-11T17:26:50.872Z,101064.75
2022-09-11T17:29:19.340Z,100969.66
2022-09-11T17:31:46.483Z,101122.56
2022-09-11T17:34:14.069Z,101112.56
2022-09-11T17:36:40.540Z,100995.25
2022-09-11T17:39:09.543Z,101087.72
2022-09-11T17:41:36.237Z,100924.09
2022-09-11T17:44:04.438Z,100922.38
2022-09-11T17:46:30.998Z,100948.66
2022-09-11T17:48:57.533Z,100988.22
2022-09-11T17:51:27.843Z,101017.03
2022-09-11T17:53:57.121Z,101007.50
2022-09-11T17:56:27.245Z,101062.50
2022-09-11T17:58:56.731Z,101111.50
2022-09-11T18:01:26.476Z,101093.94
2022-09-11T18:03:56.607Z,101108.25
2022-09-11T18:06:38.641Z,101027.94
2022-09-11T18:09:12.234Z,100998.13
2022-09-11T18:12:05.663Z,100993.94
2022-09-11T18:14:50.819Z,101001.81
2022-09-11T18:17:17.338Z,101071.91
2022-09-11T18:19:44.238Z,100998.88
2022-09-11T18:22:15.495Z,101076.59
2022-09-11T18:24:41.977Z,101059.41
2022-09-11T18:27:12.253Z,101065.50
2022-09-11T18:29:40.104Z,101057.91
2022-09-11T18:32:15.842Z,100910.00
2022-09-11T18:34:42.607Z,100932.22
2022-09-11T18:37:12.936Z,100923.41
2022-09-11T18:39:39.420Z,101004.00
2022-09-11T18:42:07.220Z,101015.97
2022-09-11T18:44:47.933Z,100952.91
2022-09-11T18:47:17.648Z,100963.88
2022-09-11T18:49:45.979Z,101015.38
2022-09-11T18:52:14.548Z,101103.03
2022-09-11T18:54:40.941Z,101093.47
2022-09-11T18:57:07.283Z,101114.41
2022-09-11T18:59:33.658Z,101015.72
2022-09-11T19:02:00.981Z,101105.06
2022-09-11T19:04:28.155Z,101108.06
2022-09-11T19:06:54.881Z,101085.91
2022-09-11T19:09:21.479Z,101033.63
2022-09-11T19:11:47.903Z,101125.75
2022-09-11T19:14:14.250Z,101101.34
2022-09-11T19:16:41.098Z,101112.00
2022-09-11T19:19:08.485Z,101117.50
2022-09-11T19:21:35.503Z,101061.47
2022-09-11T19:24:02.638Z,101079.38
2022-09-11T19:26:40.924Z,101115.28
2022-09-11T19:29:10.941Z,101103.56
2022-09-11T19:31:39.015Z,101048.47
2022-09-11T19:34:07.608Z,101100.59
2022-09-11T19:36:36.130Z,101018.06
2022-09-11T19:39:03.911Z,101126.47
2022-09-11T19:41:37.171Z,101126.81
2022-09-11T19:44:05.753Z,101136.25
2022-09-11T19:46:33.625Z,101099.69
2022-09-11T19:49:06.252Z,101121.50
2022-09-11T19:51:35.939Z,101007.31
2022-09-11T19:54:03.818Z,101127.28
2022-09-11T19:56:32.888Z,101124.28
2022-09-11T19:59:00.310Z,101127.00
2022-09-11T20:01:29.448Z,101124.88
2022-09-11T20:03:57.355Z,101057.19
2022-09-11T20:06:26.151Z,101125.25
2022-09-11T20:09:13.367Z,101127.59
2022-09-11T20:11:41.457Z,101111.38
2022-09-11T20:14:07.871Z,101080.63
2022-09-11T20:16:34.293Z,101062.31
2022-09-11T20:19:06.139Z,101120.09
2022-09-11T20:21:34.056Z,101075.91
2022-09-11T20:24:00.572Z,101114.06
2022-09-11T20:26:29.302Z,101108.34
2022-09-11T20:28:58.075Z,101116.81
2022-09-11T20:31:31.521Z,101120.94
2022-09-11T20:34:00.489Z,101075.00
2022-09-11T20:36:29.777Z,101117.25
2022-09-11T20:39:00.849Z,101113.88
2022-09-11T20:41:30.014Z,101118.03
2022-09-11T20:43:58.023Z,101097.66
2022-09-11T20:46:24.490Z,101070.63
2022-09-11T20:48:52.801Z,101115.47
2022-09-11T20:51:22.621Z,101109.59
2022-09-11T20:53:49.699Z,101102.56
2022-09-11T20:56:20.563Z,101109.84
2022-09-11T20:58:47.726Z,101070.47
2022-09-11T21:01:17.451Z,101018.91
2022-09-11T21:03:50.616Z,101109.28
2022-09-11T21:06:20.048Z,101076.56
2022-09-11T21:08:58.532Z,101093.72
2022-09-11T21:11:27.426Z,101060.44
2022-09-11T21:13:54.524Z,101105.88
2022-09-11T21:16:21.676Z,101084.09
2022-09-11T21:18:54.264Z,101090.28
2022-09-11T21:21:22.037Z,101014.97
2022-09-11T21:23:48.649Z,101040.44
2022-09-11T21:26:16.902Z,101047.44
2022-09-11T21:28:43.634Z,101096.59
2022-09-11T21:31:10.497Z,101081.25
2022-09-11T21:33:37.561Z,101097.63
2022-09-11T21:36:05.381Z,100984.78
2022-09-11T21:38:32.076Z,101087.97
2022-09-11T21:41:01.285Z,101093.28
2022-09-11T21:43:28.243Z,101086.13
2022-09-11T21:45:54.604Z,101097.13
2022-09-11T21:48:21.232Z,101094.34
2022-09-11T21:50:48.323Z,100981.13
2022-09-11T21:53:14.861Z,101091.56
2022-09-11T21:55:43.417Z,101097.53
2022-09-11T21:58:15.527Z,101094.72
2022-09-11T22:00:43.186Z,101052.97
2022-09-11T22:03:11.681Z,101071.41
2022-09-11T22:05:43.243Z,101071.53
2022-09-11T22:08:11.508Z,101092.66
2022-09-11T22:10:42.821Z,101088.94
2022-09-11T22:13:10.570Z,100968.59
2022-09-11T22:15:45.131Z,101091.59
2022-09-11T22:18:12.180Z,101095.75
2022-09-11T22:20:40.056Z,101094.88
2022-09-11T22:23:06.691Z,101063.16
2022-09-11T22:25:36.471Z,101088.00
2022-09-11T22:28:04.313Z,101079.53
2022-09-11T22:30:30.775Z,101065.38
2022-09-11T22:32:57.280Z,101057.31
2022-09-11T22:35:23.608Z,101006.16
2022-09-11T22:37:50.007Z,101079.31
2022-09-11T22:40:16.404Z,101090.28
2022-09-11T22:42:42.835Z,100966.34
2022-09-11T22:45:09.854Z,101024.78
2022-09-11T22:47:36.444Z,101068.06
2022-09-11T22:50:03.680Z,101080.25
2022-09-11T22:52:30.097Z,101057.75
2022-09-11T22:54:56.523Z,101089.25
2022-09-11T22:57:22.916Z,101070.72
2022-09-11T22:59:49.651Z,100988.34
2022-09-11T23:02:16.077Z,101073.19
2022-09-11T23:05:02.415Z,101048.75
2022-09-11T23:07:29.170Z,101067.63
2022-09-11T23:09:55.680Z,100971.56
2022-09-11T23:12:22.517Z,101066.88
2022-09-11T23:14:48.855Z,101040.97
2022-09-11T23:17:15.305Z,101024.84
2022-09-11T23:19:41.653Z,100995.31
2022-09-11T23:22:07.984Z,101019.50
2022-09-11T23:24:34.314Z,101067.72
2022-09-11T23:27:00.624Z,101062.16
2022-09-11T23:29:27.306Z,100955.06
2022-09-11T23:31:56.267Z,100947.47
2022-09-11T23:34:22.777Z,101039.66
2022-09-11T23:36:49.106Z,101046.00
2022-09-11T23:39:15.573Z,100974.63
2022-09-11T23:41:41.926Z,101065.88
2022-09-11T23:44:08.995Z,100972.66
2022-09-11T23:46:35.339Z,101054.50
2022-09-11T23:49:01.640Z,101059.78
2022-09-11T23:51:28.070Z,101063.22
2022-09-11T23:53:54.558Z,100900.25
2022-09-11T23:56:22.283Z,101035.72
2022-09-11T23:58:49.663Z,101014.34
